sensor_id;sensor_type;location;lat;lon;timestamp;temperature;humidity
431;DHT22;202;48.764;9.172;2023-02-11T00:02:01;3.90;41.60
431;DHT22;202;48.764;9.172;2023-02-11T00:04:29;3.80;41.60
431;DHT22;202;48.764;9.172;2023-02-11T00:06:58;3.80;41.70
431;DHT22;202;48.764;9.172;2023-02-11T00:09:24;3.80;42.10
431;DHT22;202;48.764;9.172;2023-02-11T00:11:51;3.80;41.40
431;DHT22;202;48.764;9.172;2023-02-11T00:14:18;3.70;41.60
431;DHT22;202;48.764;9.172;2023-02-11T00:16:45;3.70;41.50
431;DHT22;202;48.764;9.172;2023-02-11T00:19:12;3.70;41.70
431;DHT22;202;48.764;9.172;2023-02-11T00:21:39;3.60;41.70
431;DHT22;202;48.764;9.172;2023-02-11T00:24:07;3.70;42.10
431;DHT22;202;48.764;9.172;2023-02-11T00:26:34;3.60;41.80
431;DHT22;202;48.764;9.172;2023-02-11T00:29:02;3.70;41.90
431;DHT22;202;48.764;9.172;2023-02-11T00:31:29;3.60;41.80
431;DHT22;202;48.764;9.172;2023-02-11T00:33:56;3.60;42.20
431;DHT22;202;48.764;9.172;2023-02-11T00:36:25;3.60;42.10
431;DHT22;202;48.764;9.172;2023-02-11T00:38:54;3.50;42.10
431;DHT22;202;48.764;9.172;2023-02-11T00:41:24;3.50;42.20
431;DHT22;202;48.764;9.172;2023-02-11T00:43:51;3.40;42.40
431;DHT22;202;48.764;9.172;2023-02-11T00:46:18;3.40;42.10
431;DHT22;202;48.764;9.172;2023-02-11T00:48:45;3.30;43.00
431;DHT22;202;48.764;9.172;2023-02-11T00:51:12;3.30;43.40
431;DHT22;202;48.764;9.172;2023-02-11T00:53:39;3.20;43.60
431;DHT22;202;48.764;9.172;2023-02-11T00:56:06;3.20;43.40
431;DHT22;202;48.764;9.172;2023-02-11T00:58:34;3.20;43.60
431;DHT22;202;48.764;9.172;2023-02-11T01:01:02;3.30;43.80
431;DHT22;202;48.764;9.172;2023-02-11T01:03:29;3.30;43.80
431;DHT22;202;48.764;9.172;2023-02-11T01:05:56;3.30;43.80
431;DHT22;202;48.764;9.172;2023-02-11T01:08:23;3.40;43.80
431;DHT22;202;48.764;9.172;2023-02-11T01:10:54;3.50;43.50
431;DHT22;202;48.764;9.172;2023-02-11T01:13:21;3.50;43.50
431;DHT22;202;48.764;9.172;2023-02-11T01:15:50;3.40;42.70
431;DHT22;202;48.764;9.172;2023-02-11T01:18:17;3.40;43.20
431;DHT22;202;48.764;9.172;2023-02-11T01:20:44;3.50;43.60
431;DHT22;202;48.764;9.172;2023-02-11T01:23:11;3.50;43.50
431;DHT22;202;48.764;9.172;2023-02-11T01:25:38;3.40;43.20
431;DHT22;202;48.764;9.172;2023-02-11T01:28:05;3.30;43.10
431;DHT22;202;48.764;9.172;2023-02-11T01:30:32;3.30;43.70
431;DHT22;202;48.764;9.172;2023-02-11T01:33:00;3.30;43.80
431;DHT22;202;48.764;9.172;2023-02-11T01:35:27;3.20;43.80
431;DHT22;202;48.764;9.172;2023-02-11T01:37:54;3.20;43.80
431;DHT22;202;48.764;9.172;2023-02-11T01:40:21;3.30;43.80
431;DHT22;202;48.764;9.172;2023-02-11T01:42:48;3.40;43.90
431;DHT22;202;48.764;9.172;2023-02-11T01:45:58;3.40;43.90
431;DHT22;202;48.764;9.172;2023-02-11T01:48:28;3.50;43.60
431;DHT22;202;48.764;9.172;2023-02-11T01:51:11;3.50;43.80
431;DHT22;202;48.764;9.172;2023-02-11T01:53:40;3.40;43.90
431;DHT22;202;48.764;9.172;2023-02-11T01:56:35;3.50;43.60
431;DHT22;202;48.764;9.172;2023-02-11T01:59:23;3.50;44.00
431;DHT22;202;48.764;9.172;2023-02-11T02:01:57;3.50;43.60
431;DHT22;202;48.764;9.172;2023-02-11T02:04:32;3.50;43.20
431;DHT22;202;48.764;9.172;2023-02-11T02:07:04;3.40;43.30
431;DHT22;202;48.764;9.172;2023-02-11T02:09:36;3.40;44.20
431;DHT22;202;48.764;9.172;2023-02-11T02:12:05;3.40;43.10
431;DHT22;202;48.764;9.172;2023-02-11T02:14:32;3.30;43.50
431;DHT22;202;48.764;9.172;2023-02-11T02:16:59;3.40;43.50
431;DHT22;202;48.764;9.172;2023-02-11T02:19:50;3.40;43.70
431;DHT22;202;48.764;9.172;2023-02-11T02:25:52;3.40;43.60
431;DHT22;202;48.764;9.172;2023-02-11T02:28:44;3.40;43.60
431;DHT22;202;48.764;9.172;2023-02-11T02:31:35;3.40;43.80
431;DHT22;202;48.764;9.172;2023-02-11T02:34:12;3.30;43.80
431;DHT22;202;48.764;9.172;2023-02-11T02:36:45;3.30;43.80
431;DHT22;202;48.764;9.172;2023-02-11T02:39:17;3.20;43.70
431;DHT22;202;48.764;9.172;2023-02-11T02:41:47;3.20;44.20
431;DHT22;202;48.764;9.172;2023-02-11T02:44:17;3.30;44.50
431;DHT22;202;48.764;9.172;2023-02-11T02:46:44;3.20;44.50
431;DHT22;202;48.764;9.172;2023-02-11T02:49:14;3.20;44.30
431;DHT22;202;48.764;9.172;2023-02-11T02:51:55;3.20;44.30
431;DHT22;202;48.764;9.172;2023-02-11T02:57:46;3.30;43.90
431;DHT22;202;48.764;9.172;2023-02-11T03:00:23;3.20;43.80
431;DHT22;202;48.764;9.172;2023-02-11T03:03:06;3.00;44.40
431;DHT22;202;48.764;9.172;2023-02-11T03:05:43;3.10;43.70
431;DHT22;202;48.764;9.172;2023-02-11T03:08:17;3.10;43.70
431;DHT22;202;48.764;9.172;2023-02-11T03:10:51;3.00;44.30
431;DHT22;202;48.764;9.172;2023-02-11T03:13:21;3.00;45.00
431;DHT22;202;48.764;9.172;2023-02-11T03:15:51;3.00;45.10
431;DHT22;202;48.764;9.172;2023-02-11T03:18:22;3.00;45.00
431;DHT22;202;48.764;9.172;2023-02-11T03:20:52;3.10;44.70
431;DHT22;202;48.764;9.172;2023-02-11T03:23:22;3.10;45.10
431;DHT22;202;48.764;9.172;2023-02-11T03:25:55;3.20;44.90
431;DHT22;202;48.764;9.172;2023-02-11T03:28:28;3.20;44.10
431;DHT22;202;48.764;9.172;2023-02-11T03:31:04;3.30;43.80
431;DHT22;202;48.764;9.172;2023-02-11T03:33:37;3.30;43.60
431;DHT22;202;48.764;9.172;2023-02-11T03:36:10;3.30;43.40
431;DHT22;202;48.764;9.172;2023-02-11T03:38:45;3.30;43.60
431;DHT22;202;48.764;9.172;2023-02-11T03:41:14;3.30;43.50
431;DHT22;202;48.764;9.172;2023-02-11T03:43:45;3.30;43.80
431;DHT22;202;48.764;9.172;2023-02-11T03:46:16;3.30;44.20
431;DHT22;202;48.764;9.172;2023-02-11T03:48:47;3.30;44.40
431;DHT22;202;48.764;9.172;2023-02-11T03:51:17;3.20;44.30
431;DHT22;202;48.764;9.172;2023-02-11T03:53:46;3.30;44.50
431;DHT22;202;48.764;9.172;2023-02-11T03:56:16;3.30;43.80
431;DHT22;202;48.764;9.172;2023-02-11T03:58:44;3.40;44.40
431;DHT22;202;48.764;9.172;2023-02-11T04:01:11;3.40;44.00
431;DHT22;202;48.764;9.172;2023-02-11T04:03:38;3.40;43.90
431;DHT22;202;48.764;9.172;2023-02-11T04:06:05;3.30;44.20
431;DHT22;202;48.764;9.172;2023-02-11T04:08:33;3.40;43.90
431;DHT22;202;48.764;9.172;2023-02-11T04:11:01;3.30;44.20
431;DHT22;202;48.764;9.172;2023-02-11T04:13:28;3.20;44.80
431;DHT22;202;48.764;9.172;2023-02-11T04:15:55;3.30;45.00
431;DHT22;202;48.764;9.172;2023-02-11T04:18:22;3.40;45.40
431;DHT22;202;48.764;9.172;2023-02-11T04:20:49;3.30;45.40
431;DHT22;202;48.764;9.172;2023-02-11T04:23:16;3.30;45.40
431;DHT22;202;48.764;9.172;2023-02-11T04:25:44;3.40;45.30
431;DHT22;202;48.764;9.172;2023-02-11T04:28:11;3.40;45.30
431;DHT22;202;48.764;9.172;2023-02-11T04:30:41;3.40;45.00
431;DHT22;202;48.764;9.172;2023-02-11T04:33:08;3.50;44.60
431;DHT22;202;48.764;9.172;2023-02-11T04:35:35;3.50;44.60
431;DHT22;202;48.764;9.172;2023-02-11T04:38:01;3.50;44.00
431;DHT22;202;48.764;9.172;2023-02-11T04:40:28;3.50;44.00
431;DHT22;202;48.764;9.172;2023-02-11T04:42:57;3.50;44.00
431;DHT22;202;48.764;9.172;2023-02-11T04:45:23;3.50;44.40
431;DHT22;202;48.764;9.172;2023-02-11T04:47:50;3.60;45.10
431;DHT22;202;48.764;9.172;2023-02-11T04:50:17;3.60;44.10
431;DHT22;202;48.764;9.172;2023-02-11T04:52:44;3.60;44.60
431;DHT22;202;48.764;9.172;2023-02-11T04:55:11;3.50;44.20
431;DHT22;202;48.764;9.172;2023-02-11T04:57:38;3.50;44.40
431;DHT22;202;48.764;9.172;2023-02-11T05:00:08;3.50;44.20
431;DHT22;202;48.764;9.172;2023-02-11T05:02:35;3.70;43.80
431;DHT22;202;48.764;9.172;2023-02-11T05:05:02;3.60;43.90
431;DHT22;202;48.764;9.172;2023-02-11T05:07:29;3.60;44.80
431;DHT22;202;48.764;9.172;2023-02-11T05:09:56;3.70;43.90
431;DHT22;202;48.764;9.172;2023-02-11T05:12:22;3.70;43.80
431;DHT22;202;48.764;9.172;2023-02-11T05:14:49;3.70;43.80
431;DHT22;202;48.764;9.172;2023-02-11T05:17:18;3.70;43.60
431;DHT22;202;48.764;9.172;2023-02-11T05:19:45;3.70;43.40
431;DHT22;202;48.764;9.172;2023-02-11T05:22:11;3.80;43.40
431;DHT22;202;48.764;9.172;2023-02-11T05:24:38;3.80;42.90
431;DHT22;202;48.764;9.172;2023-02-11T05:27:05;3.80;42.20
431;DHT22;202;48.764;9.172;2023-02-11T05:29:32;3.80;42.10
431;DHT22;202;48.764;9.172;2023-02-11T05:31:59;3.80;42.80
431;DHT22;202;48.764;9.172;2023-02-11T05:34:27;3.70;42.50
431;DHT22;202;48.764;9.172;2023-02-11T05:36:54;3.70;42.30
431;DHT22;202;48.764;9.172;2023-02-11T05:39:21;3.50;42.00
431;DHT22;202;48.764;9.172;2023-02-11T05:41:47;3.50;42.00
431;DHT22;202;48.764;9.172;2023-02-11T05:44:14;3.50;42.10
431;DHT22;202;48.764;9.172;2023-02-11T05:46:41;3.50;41.80
431;DHT22;202;48.764;9.172;2023-02-11T05:49:08;3.40;42.20
431;DHT22;202;48.764;9.172;2023-02-11T05:51:36;3.20;42.70
431;DHT22;202;48.764;9.172;2023-02-11T05:54:03;3.10;43.50
431;DHT22;202;48.764;9.172;2023-02-11T05:56:30;3.10;43.70
431;DHT22;202;48.764;9.172;2023-02-11T05:58:58;3.10;43.70
431;DHT22;202;48.764;9.172;2023-02-11T06:01:25;3.20;43.70
431;DHT22;202;48.764;9.172;2023-02-11T06:03:52;3.30;43.10
431;DHT22;202;48.764;9.172;2023-02-11T06:06:19;3.40;42.40
431;DHT22;202;48.764;9.172;2023-02-11T06:08:47;3.30;42.40
431;DHT22;202;48.764;9.172;2023-02-11T06:11:15;3.40;42.70
431;DHT22;202;48.764;9.172;2023-02-11T06:13:42;3.30;42.70
431;DHT22;202;48.764;9.172;2023-02-11T06:16:09;3.30;43.10
431;DHT22;202;48.764;9.172;2023-02-11T06:18:36;3.30;43.10
431;DHT22;202;48.764;9.172;2023-02-11T06:21:06;3.20;43.10
431;DHT22;202;48.764;9.172;2023-02-11T06:23:33;3.30;43.10
431;DHT22;202;48.764;9.172;2023-02-11T06:26:03;3.20;43.70
431;DHT22;202;48.764;9.172;2023-02-11T06:28:31;3.10;43.70
431;DHT22;202;48.764;9.172;2023-02-11T06:31:04;3.10;43.70
431;DHT22;202;48.764;9.172;2023-02-11T06:33:31;3.10;44.40
431;DHT22;202;48.764;9.172;2023-02-11T06:35:58;3.20;43.80
431;DHT22;202;48.764;9.172;2023-02-11T06:38:25;3.30;43.80
431;DHT22;202;48.764;9.172;2023-02-11T06:40:52;3.40;43.30
431;DHT22;202;48.764;9.172;2023-02-11T06:43:21;3.40;43.20
431;DHT22;202;48.764;9.172;2023-02-11T06:45:52;3.20;43.50
431;DHT22;202;48.764;9.172;2023-02-11T06:48:19;3.20;43.40
431;DHT22;202;48.764;9.172;2023-02-11T06:50:46;3.20;43.80
431;DHT22;202;48.764;9.172;2023-02-11T06:53:13;3.20;43.80
431;DHT22;202;48.764;9.172;2023-02-11T06:55:40;3.30;43.90
431;DHT22;202;48.764;9.172;2023-02-11T06:58:07;3.40;43.80
431;DHT22;202;48.764;9.172;2023-02-11T07:00:36;3.40;43.90
431;DHT22;202;48.764;9.172;2023-02-11T07:03:03;3.40;43.90
431;DHT22;202;48.764;9.172;2023-02-11T07:05:30;3.30;43.80
431;DHT22;202;48.764;9.172;2023-02-11T07:07:58;3.20;43.80
431;DHT22;202;48.764;9.172;2023-02-11T07:10:25;3.20;44.30
431;DHT22;202;48.764;9.172;2023-02-11T07:12:52;3.00;44.70
431;DHT22;202;48.764;9.172;2023-02-11T07:15:19;3.20;44.90
431;DHT22;202;48.764;9.172;2023-02-11T07:17:47;3.40;43.90
431;DHT22;202;48.764;9.172;2023-02-11T07:20:15;3.60;44.00
431;DHT22;202;48.764;9.172;2023-02-11T07:22:42;3.60;43.80
431;DHT22;202;48.764;9.172;2023-02-11T07:25:09;3.70;44.20
431;DHT22;202;48.764;9.172;2023-02-11T07:27:36;3.80;43.90
431;DHT22;202;48.764;9.172;2023-02-11T07:30:03;3.80;43.30
431;DHT22;202;48.764;9.172;2023-02-11T07:32:30;3.90;43.40
431;DHT22;202;48.764;9.172;2023-02-11T07:34:58;3.90;43.40
431;DHT22;202;48.764;9.172;2023-02-11T07:37:25;3.90;43.40
431;DHT22;202;48.764;9.172;2023-02-11T07:39:52;3.90;43.30
431;DHT22;202;48.764;9.172;2023-02-11T07:42:19;4.00;43.50
431;DHT22;202;48.764;9.172;2023-02-11T07:44:46;4.00;44.20
431;DHT22;202;48.764;9.172;2023-02-11T07:47:13;4.10;43.70
431;DHT22;202;48.764;9.172;2023-02-11T07:49:40;4.10;43.30
431;DHT22;202;48.764;9.172;2023-02-11T07:52:08;4.20;43.30
431;DHT22;202;48.764;9.172;2023-02-11T07:54:35;4.30;43.10
431;DHT22;202;48.764;9.172;2023-02-11T07:57:02;4.40;42.40
431;DHT22;202;48.764;9.172;2023-02-11T07:59:29;4.50;42.80
431;DHT22;202;48.764;9.172;2023-02-11T08:01:56;4.50;42.30
431;DHT22;202;48.764;9.172;2023-02-11T08:04:23;4.50;42.20
431;DHT22;202;48.764;9.172;2023-02-11T08:06:50;4.30;43.00
431;DHT22;202;48.764;9.172;2023-02-11T08:09:18;4.40;43.20
431;DHT22;202;48.764;9.172;2023-02-11T08:11:45;4.40;42.70
431;DHT22;202;48.764;9.172;2023-02-11T08:14:12;4.50;42.70
431;DHT22;202;48.764;9.172;2023-02-11T08:16:40;4.50;43.00
431;DHT22;202;48.764;9.172;2023-02-11T08:19:09;4.60;42.70
431;DHT22;202;48.764;9.172;2023-02-11T08:21:37;4.80;42.80
431;DHT22;202;48.764;9.172;2023-02-11T08:24:05;4.80;42.60
431;DHT22;202;48.764;9.172;2023-02-11T08:26:34;5.00;42.60
431;DHT22;202;48.764;9.172;2023-02-11T08:29:04;5.00;42.80
431;DHT22;202;48.764;9.172;2023-02-11T08:31:33;5.10;41.80
431;DHT22;202;48.764;9.172;2023-02-11T08:34:00;5.10;41.70
431;DHT22;202;48.764;9.172;2023-02-11T08:36:28;5.20;42.30
431;DHT22;202;48.764;9.172;2023-02-11T08:38:56;5.40;42.10
431;DHT22;202;48.764;9.172;2023-02-11T08:41:24;5.40;41.70
431;DHT22;202;48.764;9.172;2023-02-11T08:43:55;5.70;42.00
431;DHT22;202;48.764;9.172;2023-02-11T08:46:22;6.00;41.20
431;DHT22;202;48.764;9.172;2023-02-11T08:48:49;6.30;40.80
431;DHT22;202;48.764;9.172;2023-02-11T08:51:17;6.50;39.10
431;DHT22;202;48.764;9.172;2023-02-11T08:53:45;6.30;39.00
431;DHT22;202;48.764;9.172;2023-02-11T08:56:13;6.40;39.70
431;DHT22;202;48.764;9.172;2023-02-11T08:58:41;6.40;39.00
431;DHT22;202;48.764;9.172;2023-02-11T09:01:10;6.60;38.80
431;DHT22;202;48.764;9.172;2023-02-11T09:03:37;6.80;38.70
431;DHT22;202;48.764;9.172;2023-02-11T09:06:05;6.80;39.00
431;DHT22;202;48.764;9.172;2023-02-11T09:08:33;7.20;38.40
431;DHT22;202;48.764;9.172;2023-02-11T09:11:01;7.10;37.80
431;DHT22;202;48.764;9.172;2023-02-11T09:13:28;7.10;37.80
431;DHT22;202;48.764;9.172;2023-02-11T09:15:55;7.30;38.10
431;DHT22;202;48.764;9.172;2023-02-11T09:18:24;7.40;37.50
431;DHT22;202;48.764;9.172;2023-02-11T09:20:51;7.40;37.30
431;DHT22;202;48.764;9.172;2023-02-11T09:23:18;7.00;37.90
431;DHT22;202;48.764;9.172;2023-02-11T09:25:45;6.90;38.50
431;DHT22;202;48.764;9.172;2023-02-11T09:28:12;6.80;39.00
431;DHT22;202;48.764;9.172;2023-02-11T09:30:39;6.80;39.00
431;DHT22;202;48.764;9.172;2023-02-11T09:33:05;6.70;39.20
431;DHT22;202;48.764;9.172;2023-02-11T09:35:35;6.90;39.70
431;DHT22;202;48.764;9.172;2023-02-11T09:38:02;7.20;39.20
431;DHT22;202;48.764;9.172;2023-02-11T09:40:29;7.50;38.50
431;DHT22;202;48.764;9.172;2023-02-11T09:43:02;7.70;37.80
431;DHT22;202;48.764;9.172;2023-02-11T09:45:30;7.80;37.50
431;DHT22;202;48.764;9.172;2023-02-11T09:48:00;8.20;37.00
431;DHT22;202;48.764;9.172;2023-02-11T09:50:38;8.30;36.30
431;DHT22;202;48.764;9.172;2023-02-11T09:53:12;8.50;35.50
431;DHT22;202;48.764;9.172;2023-02-11T09:55:42;8.50;35.30
431;DHT22;202;48.764;9.172;2023-02-11T09:58:13;8.50;35.10
431;DHT22;202;48.764;9.172;2023-02-11T10:00:44;8.60;34.60
431;DHT22;202;48.764;9.172;2023-02-11T10:03:25;8.50;34.80
431;DHT22;202;48.764;9.172;2023-02-11T10:06:16;8.60;35.30
431;DHT22;202;48.764;9.172;2023-02-11T10:08:55;8.80;34.90
431;DHT22;202;48.764;9.172;2023-02-11T10:11:31;8.90;34.30
431;DHT22;202;48.764;9.172;2023-02-11T10:14:11;9.10;33.90
431;DHT22;202;48.764;9.172;2023-02-11T10:16:54;9.00;33.80
431;DHT22;202;48.764;9.172;2023-02-11T10:19:38;8.90;33.80
431;DHT22;202;48.764;9.172;2023-02-11T10:22:15;9.00;34.00
431;DHT22;202;48.764;9.172;2023-02-11T10:24:50;8.90;34.30
431;DHT22;202;48.764;9.172;2023-02-11T10:27:20;8.80;34.10
431;DHT22;202;48.764;9.172;2023-02-11T10:29:50;8.80;34.20
431;DHT22;202;48.764;9.172;2023-02-11T10:32:30;8.90;34.00
431;DHT22;202;48.764;9.172;2023-02-11T10:35:01;8.90;34.60
431;DHT22;202;48.764;9.172;2023-02-11T10:37:30;9.00;33.90
431;DHT22;202;48.764;9.172;2023-02-11T10:39:57;9.10;33.90
431;DHT22;202;48.764;9.172;2023-02-11T10:42:24;9.10;33.90
431;DHT22;202;48.764;9.172;2023-02-11T10:44:57;9.10;34.00
431;DHT22;202;48.764;9.172;2023-02-11T10:47:27;9.40;34.20
431;DHT22;202;48.764;9.172;2023-02-11T10:50:18;9.60;33.30
431;DHT22;202;48.764;9.172;2023-02-11T10:52:47;9.50;33.50
431;DHT22;202;48.764;9.172;2023-02-11T10:55:16;9.60;33.30
431;DHT22;202;48.764;9.172;2023-02-11T10:57:51;9.60;32.90
431;DHT22;202;48.764;9.172;2023-02-11T11:00:25;9.60;33.10
431;DHT22;202;48.764;9.172;2023-02-11T11:02:55;9.50;32.90
431;DHT22;202;48.764;9.172;2023-02-11T11:05:29;9.30;33.80
431;DHT22;202;48.764;9.172;2023-02-11T11:07:59;9.40;33.80
431;DHT22;202;48.764;9.172;2023-02-11T11:10:33;9.40;33.40
431;DHT22;202;48.764;9.172;2023-02-11T11:13:04;9.50;33.80
431;DHT22;202;48.764;9.172;2023-02-11T11:15:31;9.60;32.80
431;DHT22;202;48.764;9.172;2023-02-11T11:18:11;9.60;32.90
431;DHT22;202;48.764;9.172;2023-02-11T11:21:03;9.60;32.80
431;DHT22;202;48.764;9.172;2023-02-11T11:23:35;9.70;33.20
431;DHT22;202;48.764;9.172;2023-02-11T11:26:05;9.80;33.20
431;DHT22;202;48.764;9.172;2023-02-11T11:28:37;10.00;31.80
431;DHT22;202;48.764;9.172;2023-02-11T11:31:13;9.90;32.70
431;DHT22;202;48.764;9.172;2023-02-11T11:33:42;10.10;32.00
431;DHT22;202;48.764;9.172;2023-02-11T11:36:11;10.10;31.40
431;DHT22;202;48.764;9.172;2023-02-11T11:38:46;10.20;31.40
431;DHT22;202;48.764;9.172;2023-02-11T11:41:17;10.20;31.30
431;DHT22;202;48.764;9.172;2023-02-11T11:44:00;10.20;31.50
431;DHT22;202;48.764;9.172;2023-02-11T11:46:34;10.40;31.10
431;DHT22;202;48.764;9.172;2023-02-11T11:49:13;10.30;31.10
431;DHT22;202;48.764;9.172;2023-02-11T11:51:49;10.30;31.20
431;DHT22;202;48.764;9.172;2023-02-11T11:54:19;10.30;31.30
431;DHT22;202;48.764;9.172;2023-02-11T11:56:52;10.30;31.10
431;DHT22;202;48.764;9.172;2023-02-11T11:59:20;10.40;31.50
431;DHT22;202;48.764;9.172;2023-02-11T12:02:06;10.50;31.10
431;DHT22;202;48.764;9.172;2023-02-11T12:04:54;10.60;31.30
431;DHT22;202;48.764;9.172;2023-02-11T12:07:35;10.70;31.00
431;DHT22;202;48.764;9.172;2023-02-11T12:10:25;10.70;30.70
431;DHT22;202;48.764;9.172;2023-02-11T12:12:58;10.40;31.10
431;DHT22;202;48.764;9.172;2023-02-11T12:15:33;10.30;31.70
431;DHT22;202;48.764;9.172;2023-02-11T12:18:31;10.20;32.00
431;DHT22;202;48.764;9.172;2023-02-11T12:21:14;10.10;32.70
431;DHT22;202;48.764;9.172;2023-02-11T12:23:57;10.20;32.80
431;DHT22;202;48.764;9.172;2023-02-11T12:26:34;10.30;33.00
431;DHT22;202;48.764;9.172;2023-02-11T12:29:09;10.60;32.70
431;DHT22;202;48.764;9.172;2023-02-11T12:31:45;10.80;31.30
431;DHT22;202;48.764;9.172;2023-02-11T12:34:33;10.70;31.90
431;DHT22;202;48.764;9.172;2023-02-11T12:37:14;10.60;32.50
431;DHT22;202;48.764;9.172;2023-02-11T12:39:49;10.60;32.30
431;DHT22;202;48.764;9.172;2023-02-11T12:42:36;10.50;32.90
431;DHT22;202;48.764;9.172;2023-02-11T12:45:30;10.40;33.20
431;DHT22;202;48.764;9.172;2023-02-11T12:48:08;10.30;33.20
431;DHT22;202;48.764;9.172;2023-02-11T12:50:45;10.10;33.80
431;DHT22;202;48.764;9.172;2023-02-11T12:53:26;10.10;33.80
431;DHT22;202;48.764;9.172;2023-02-11T12:56:02;10.20;33.90
431;DHT22;202;48.764;9.172;2023-02-11T12:58:35;10.30;34.00
431;DHT22;202;48.764;9.172;2023-02-11T13:01:05;10.30;34.40
431;DHT22;202;48.764;9.172;2023-02-11T13:03:40;10.40;34.50
431;DHT22;202;48.764;9.172;2023-02-11T13:06:11;10.30;34.00
431;DHT22;202;48.764;9.172;2023-02-11T13:08:42;10.40;34.10
431;DHT22;202;48.764;9.172;2023-02-11T13:11:12;10.40;34.10
431;DHT22;202;48.764;9.172;2023-02-11T13:13:52;10.50;34.20
431;DHT22;202;48.764;9.172;2023-02-11T13:16:30;10.60;34.20
431;DHT22;202;48.764;9.172;2023-02-11T13:19:05;10.60;34.20
431;DHT22;202;48.764;9.172;2023-02-11T13:21:45;10.70;34.30
431;DHT22;202;48.764;9.172;2023-02-11T13:24:24;10.70;34.30
431;DHT22;202;48.764;9.172;2023-02-11T13:30:32;10.60;34.20
431;DHT22;202;48.764;9.172;2023-02-11T13:33:53;10.60;34.80
431;DHT22;202;48.764;9.172;2023-02-11T13:36:43;10.70;34.70
431;DHT22;202;48.764;9.172;2023-02-11T13:39:38;10.70;35.00
431;DHT22;202;48.764;9.172;2023-02-11T13:42:16;10.60;35.50
431;DHT22;202;48.764;9.172;2023-02-11T13:45:26;10.60;35.90
431;DHT22;202;48.764;9.172;2023-02-11T13:48:27;10.60;36.70
431;DHT22;202;48.764;9.172;2023-02-11T13:51:31;10.40;37.40
431;DHT22;202;48.764;9.172;2023-02-11T13:57:44;10.20;38.80
431;DHT22;202;48.764;9.172;2023-02-11T14:21:13;10.30;39.00
431;DHT22;202;48.764;9.172;2023-02-11T14:28:15;11.00;36.60
431;DHT22;202;48.764;9.172;2023-02-11T14:31:11;10.90;37.20
431;DHT22;202;48.764;9.172;2023-02-11T14:34:13;10.80;37.10
431;DHT22;202;48.764;9.172;2023-02-11T14:37:19;10.60;37.00
431;DHT22;202;48.764;9.172;2023-02-11T14:43:44;10.40;37.60
431;DHT22;202;48.764;9.172;2023-02-11T14:46:31;10.40;37.90
431;DHT22;202;48.764;9.172;2023-02-11T14:52:57;10.30;37.90
431;DHT22;202;48.764;9.172;2023-02-11T14:55:51;10.20;37.80
431;DHT22;202;48.764;9.172;2023-02-11T14:58:26;10.20;38.10
431;DHT22;202;48.764;9.172;2023-02-11T15:01:27;10.20;37.90
431;DHT22;202;48.764;9.172;2023-02-11T15:04:05;10.30;38.00
431;DHT22;202;48.764;9.172;2023-02-11T15:07:11;10.30;37.70
431;DHT22;202;48.764;9.172;2023-02-11T15:09:51;10.20;37.60
431;DHT22;202;48.764;9.172;2023-02-11T15:12:23;10.20;37.30
431;DHT22;202;48.764;9.172;2023-02-11T15:14:55;10.20;37.00
431;DHT22;202;48.764;9.172;2023-02-11T15:17:30;10.20;37.00
431;DHT22;202;48.764;9.172;2023-02-11T15:20:00;10.20;36.40
431;DHT22;202;48.764;9.172;2023-02-11T15:22:29;10.20;36.50
431;DHT22;202;48.764;9.172;2023-02-11T15:25:06;10.20;36.90
431;DHT22;202;48.764;9.172;2023-02-11T15:27:39;10.30;37.20
431;DHT22;202;48.764;9.172;2023-02-11T15:30:27;10.20;37.70
431;DHT22;202;48.764;9.172;2023-02-11T15:32:56;10.10;37.90
431;DHT22;202;48.764;9.172;2023-02-11T15:35:25;10.10;38.10
431;DHT22;202;48.764;9.172;2023-02-11T15:37:53;10.00;38.20
431;DHT22;202;48.764;9.172;2023-02-11T15:40:27;9.90;39.60
431;DHT22;202;48.764;9.172;2023-02-11T15:43:01;9.80;40.00
431;DHT22;202;48.764;9.172;2023-02-11T15:45:32;9.80;39.80
431;DHT22;202;48.764;9.172;2023-02-11T15:48:06;9.80;40.00
431;DHT22;202;48.764;9.172;2023-02-11T15:50:37;9.80;40.20
431;DHT22;202;48.764;9.172;2023-02-11T15:53:23;9.80;40.20
431;DHT22;202;48.764;9.172;2023-02-11T15:55:56;9.70;40.30
431;DHT22;202;48.764;9.172;2023-02-11T15:58:27;9.60;40.50
431;DHT22;202;48.764;9.172;2023-02-11T16:00:55;9.60;40.60
431;DHT22;202;48.764;9.172;2023-02-11T16:03:29;9.60;40.80
431;DHT22;202;48.764;9.172;2023-02-11T16:06:16;9.60;40.80
431;DHT22;202;48.764;9.172;2023-02-11T16:09:04;9.50;40.80
431;DHT22;202;48.764;9.172;2023-02-11T16:11:35;9.50;40.90
431;DHT22;202;48.764;9.172;2023-02-11T16:14:19;9.50;41.10
431;DHT22;202;48.764;9.172;2023-02-11T16:16:48;9.60;41.00
431;DHT22;202;48.764;9.172;2023-02-11T16:19:18;9.60;41.10
431;DHT22;202;48.764;9.172;2023-02-11T16:21:45;9.60;41.10
431;DHT22;202;48.764;9.172;2023-02-11T16:24:18;9.60;41.20
431;DHT22;202;48.764;9.172;2023-02-11T16:26:49;9.50;41.00
431;DHT22;202;48.764;9.172;2023-02-11T16:29:22;9.50;41.20
431;DHT22;202;48.764;9.172;2023-02-11T16:31:52;9.40;41.60
431;DHT22;202;48.764;9.172;2023-02-11T16:34:20;9.40;41.70
431;DHT22;202;48.764;9.172;2023-02-11T16:36:51;9.40;41.70
431;DHT22;202;48.764;9.172;2023-02-11T16:39:20;9.40;41.60
431;DHT22;202;48.764;9.172;2023-02-11T16:41:50;9.40;41.60
431;DHT22;202;48.764;9.172;2023-02-11T16:44:20;9.40;41.50
431;DHT22;202;48.764;9.172;2023-02-11T16:46:51;9.50;41.60
431;DHT22;202;48.764;9.172;2023-02-11T16:49:23;9.50;41.70
431;DHT22;202;48.764;9.172;2023-02-11T16:51:54;9.40;41.80
431;DHT22;202;48.764;9.172;2023-02-11T16:54:22;9.40;41.60
431;DHT22;202;48.764;9.172;2023-02-11T16:56:51;9.40;41.80
431;DHT22;202;48.764;9.172;2023-02-11T16:59:20;9.40;42.00
431;DHT22;202;48.764;9.172;2023-02-11T17:01:48;9.30;42.20
431;DHT22;202;48.764;9.172;2023-02-11T17:04:19;9.40;42.20
431;DHT22;202;48.764;9.172;2023-02-11T17:06:46;9.40;42.20
431;DHT22;202;48.764;9.172;2023-02-11T17:09:17;9.40;42.10
431;DHT22;202;48.764;9.172;2023-02-11T17:18:36;9.40;42.20
431;DHT22;202;48.764;9.172;2023-02-11T17:21:12;9.30;42.30
431;DHT22;202;48.764;9.172;2023-02-11T17:27:21;9.40;42.50
431;DHT22;202;48.764;9.172;2023-02-11T17:33:55;9.30;42.40
431;DHT22;202;48.764;9.172;2023-02-11T17:36:55;9.30;42.60
431;DHT22;202;48.764;9.172;2023-02-11T17:39:27;9.30;42.40
431;DHT22;202;48.764;9.172;2023-02-11T17:55:14;9.10;43.30
431;DHT22;202;48.764;9.172;2023-02-11T17:58:04;9.20;43.40
431;DHT22;202;48.764;9.172;2023-02-11T18:00:32;9.20;43.90
431;DHT22;202;48.764;9.172;2023-02-11T18:03:02;9.10;43.80
431;DHT22;202;48.764;9.172;2023-02-11T18:05:35;9.20;43.60
431;DHT22;202;48.764;9.172;2023-02-11T18:08:10;9.20;43.30
431;DHT22;202;48.764;9.172;2023-02-11T18:11:03;9.20;43.20
